createdAt,value
2018-11-29T00:01:20.922Z,27.37
2018-11-29T00:03:49.916Z,35.77
2018-11-29T00:06:18.911Z,31.27
2018-11-29T00:08:48.000Z,33.20
2018-11-29T00:11:17.117Z,28.57
2018-11-29T00:13:46.087Z,28.63
2018-11-29T00:16:15.200Z,28.50
2018-11-29T00:18:44.247Z,33.27
2018-11-29T00:21:13.196Z,31.87
2018-11-29T00:23:42.185Z,34.90
2018-11-29T00:26:11.163Z,35.93
2018-11-29T00:28:40.149Z,33.47
2018-11-29T00:31:09.260Z,29.77
2018-11-29T00:33:38.252Z,29.90
2018-11-29T00:36:07.247Z,35.67
2018-11-29T00:38:36.225Z,33.93
2018-11-29T00:41:05.465Z,35.47
2018-11-29T00:43:34.459Z,32.03
2018-11-29T00:46:03.466Z,33.20
2018-11-29T00:48:32.427Z,30.37
2018-11-29T00:51:01.429Z,34.53
2018-11-29T00:53:30.395Z,35.47
2018-11-29T00:55:59.406Z,34.33
2018-11-29T00:58:28.398Z,32.70
2018-11-29T01:00:57.387Z,32.47
2018-11-29T01:03:26.378Z,28.97
2018-11-29T01:05:55.440Z,33.07
2018-11-29T01:08:24.449Z,33.17
2018-11-29T01:10:53.438Z,31.57
2018-11-29T01:13:22.415Z,34.43
2018-11-29T01:15:51.458Z,32.13
2018-11-29T01:18:20.462Z,35.63
2018-11-29T01:20:49.448Z,35.80
2018-11-29T01:23:18.441Z,34.60
2018-11-29T01:25:47.462Z,37.17
2018-11-29T01:28:16.459Z,35.30
2018-11-29T01:30:45.453Z,30.73
2018-11-29T01:33:14.417Z,32.67
2018-11-29T01:35:43.411Z,35.57
2018-11-29T01:38:12.405Z,32.30
2018-11-29T01:40:41.456Z,31.23
2018-11-29T01:43:10.601Z,35.30
2018-11-29T01:45:39.603Z,35.97
2018-11-29T01:48:08.586Z,32.13
2018-11-29T01:50:37.593Z,35.03
2018-11-29T01:53:06.604Z,37.23
2018-11-29T01:55:35.574Z,38.53
2018-11-29T01:58:04.587Z,32.00
2018-11-29T02:00:33.611Z,34.27
2018-11-29T02:03:02.611Z,33.60
2018-11-29T02:05:31.600Z,37.30
2018-11-29T02:08:00.565Z,36.23
2018-11-29T02:10:35.008Z,35.40
2018-11-29T02:13:03.970Z,37.67
2018-11-29T02:15:32.966Z,35.70
2018-11-29T02:18:01.974Z,36.03
2018-11-29T02:20:30.985Z,41.33
2018-11-29T02:22:59.957Z,33.40
2018-11-29T02:25:28.972Z,35.50
2018-11-29T02:27:58.005Z,37.63
2018-11-29T02:30:26.991Z,34.07
2018-11-29T02:32:55.994Z,37.57
2018-11-29T02:35:24.987Z,33.90
2018-11-29T02:37:53.971Z,34.17
2018-11-29T02:40:22.940Z,41.37
2018-11-29T02:42:52.119Z,39.63
2018-11-29T02:45:23.394Z,37.00
2018-11-29T02:47:52.393Z,34.27
2018-11-29T02:50:21.393Z,29.37
2018-11-29T02:52:50.419Z,34.13
2018-11-29T02:55:20.468Z,38.90
2018-11-29T02:57:49.445Z,32.40
2018-11-29T03:00:18.909Z,38.37
2018-11-29T03:02:47.985Z,40.27
2018-11-29T03:05:17.599Z,34.67
2018-11-29T03:07:46.564Z,35.53
2018-11-29T03:10:20.396Z,34.97
2018-11-29T03:12:49.419Z,39.87
2018-11-29T03:15:18.374Z,41.30
2018-11-29T03:17:47.333Z,38.13
2018-11-29T03:20:16.323Z,35.37
2018-11-29T03:22:45.311Z,37.50
2018-11-29T03:25:16.076Z,36.50
2018-11-29T03:27:45.335Z,31.73
2018-11-29T03:30:15.223Z,32.57
2018-11-29T03:32:44.258Z,34.77
2018-11-29T03:35:13.994Z,37.87
2018-11-29T03:37:42.989Z,34.13
2018-11-29T03:40:13.777Z,36.23
2018-11-29T03:42:42.792Z,36.27
2018-11-29T03:45:12.737Z,38.07
2018-11-29T03:47:42.497Z,37.73
2018-11-29T03:50:13.582Z,44.27
2018-11-29T03:52:42.587Z,38.23
2018-11-29T03:55:12.130Z,37.17
2018-11-29T03:57:41.131Z,36.37
2018-11-29T04:00:15.754Z,41.13
2018-11-29T04:02:45.591Z,41.47
2018-11-29T04:05:14.597Z,34.97
2018-11-29T04:07:43.596Z,33.77
2018-11-29T04:10:14.625Z,35.90
2018-11-29T04:12:43.696Z,40.47
2018-11-29T04:15:13.528Z,41.67
2018-11-29T04:17:42.505Z,38.20
2018-11-29T04:20:14.397Z,39.20
2018-11-29T04:22:43.381Z,36.33
2018-11-29T04:25:13.297Z,37.03
2018-11-29T04:27:42.308Z,44.13
2018-11-29T04:30:13.319Z,39.33
2018-11-29T04:32:42.333Z,38.07
2018-11-29T04:35:11.652Z,39.20
2018-11-29T04:37:40.660Z,39.20
2018-11-29T04:40:14.737Z,38.43
2018-11-29T04:42:43.806Z,42.03
2018-11-29T04:45:13.867Z,43.77
2018-11-29T04:47:42.876Z,38.73
2018-11-29T04:50:11.851Z,38.13
2018-11-29T04:52:40.871Z,34.47
2018-11-29T04:55:10.285Z,36.57
2018-11-29T04:57:39.321Z,37.37
2018-11-29T05:00:15.711Z,39.33
2018-11-29T05:02:45.820Z,31.40
2018-11-29T05:05:14.886Z,40.57
2018-11-29T05:07:43.880Z,40.93
2018-11-29T05:10:17.822Z,32.33
2018-11-29T05:12:47.313Z,38.80
2018-11-29T05:15:16.319Z,37.83
2018-11-29T05:17:45.307Z,40.63
2018-11-29T05:20:14.282Z,40.77
2018-11-29T05:22:43.290Z,42.57
2018-11-29T05:25:12.296Z,43.40
2018-11-29T05:27:41.324Z,42.30
2018-11-29T05:30:12.586Z,40.10
2018-11-29T05:32:41.568Z,45.70
2018-11-29T05:35:11.528Z,35.60
2018-11-29T05:37:40.623Z,39.77
2018-11-29T05:40:11.799Z,44.77
2018-11-29T05:42:40.797Z,39.17
2018-11-29T05:45:10.790Z,40.47
2018-11-29T05:47:39.798Z,43.03
2018-11-29T05:50:10.202Z,38.53
2018-11-29T05:52:39.404Z,40.30
2018-11-29T05:55:10.024Z,40.10
2018-11-29T05:57:39.007Z,43.10
2018-11-29T06:00:12.359Z,40.33
2018-11-29T06:02:41.431Z,41.77
2018-11-29T06:05:11.518Z,37.93
2018-11-29T06:07:40.488Z,40.30
2018-11-29T06:10:10.151Z,36.57
2018-11-29T06:12:39.196Z,35.13
2018-11-29T06:15:10.514Z,43.27
2018-11-29T06:17:39.612Z,43.00
2018-11-29T06:20:11.929Z,36.60
2018-11-29T06:22:41.745Z,39.50
2018-11-29T06:25:11.118Z,43.07
2018-11-29T06:27:40.352Z,43.43
2018-11-29T06:30:13.811Z,41.13
2018-11-29T06:32:42.875Z,43.60
2018-11-29T06:35:15.816Z,37.30
2018-11-29T06:37:45.438Z,42.63
2018-11-29T06:40:17.080Z,42.37
2018-11-29T06:42:46.100Z,40.13
2018-11-29T06:45:19.919Z,41.73
2018-11-29T06:47:49.991Z,42.90
2018-11-29T06:50:18.986Z,43.30
2018-11-29T06:52:49.131Z,39.70
2018-11-29T06:55:21.059Z,38.63
2018-11-29T06:57:50.124Z,40.63
2018-11-29T07:00:24.287Z,39.50
2018-11-29T07:02:53.368Z,41.50
2018-11-29T07:05:28.603Z,39.67
2018-11-29T07:07:57.630Z,41.27
2018-11-29T07:10:32.061Z,42.90
2018-11-29T07:13:02.255Z,38.87
2018-11-29T07:15:31.324Z,38.07
2018-11-29T07:18:02.849Z,49.53
2018-11-29T07:20:31.823Z,41.53
2018-11-29T07:23:02.069Z,40.67
2018-11-29T07:25:31.145Z,42.17
2018-11-29T07:28:00.160Z,42.37
2018-11-29T07:30:29.219Z,42.47
2018-11-29T07:32:58.859Z,43.17
2018-11-29T07:35:27.870Z,38.47
2018-11-29T07:37:57.748Z,37.53
2018-11-29T07:40:26.756Z,35.70
2018-11-29T07:42:57.111Z,41.17
2018-11-29T07:45:26.176Z,41.93
2018-11-29T07:47:55.192Z,38.53
2018-11-29T07:50:24.390Z,42.10
2018-11-29T07:52:53.551Z,41.30
2018-11-29T07:55:22.905Z,35.60
2018-11-29T07:57:52.842Z,37.70
2018-11-29T08:00:21.892Z,43.73
2018-11-29T08:02:51.392Z,42.10
2018-11-29T08:05:20.519Z,37.70
2018-11-29T08:07:50.516Z,43.03
2018-11-29T08:10:19.852Z,40.70
2018-11-29T08:12:49.885Z,39.50
2018-11-29T08:15:21.109Z,39.23
2018-11-29T08:17:50.207Z,39.60
2018-11-29T08:20:21.090Z,40.97
2018-11-29T08:22:50.112Z,37.90
2018-11-29T08:25:19.105Z,38.00
2018-11-29T08:27:48.102Z,40.27
2018-11-29T08:30:17.226Z,39.97
2018-11-29T08:32:46.268Z,44.87
2018-11-29T08:35:15.914Z,40.40
2018-11-29T08:37:46.065Z,44.10
2018-11-29T08:40:19.349Z,43.50
2018-11-29T08:42:48.381Z,38.73
2018-11-29T08:45:17.374Z,37.83
2018-11-29T08:47:46.654Z,44.37
2018-11-29T08:50:16.069Z,35.93
2018-11-29T08:52:45.963Z,37.33
2018-11-29T08:55:17.024Z,42.83
2018-11-29T08:57:47.387Z,42.43
2018-11-29T09:00:17.419Z,38.03
2018-11-29T09:02:46.589Z,35.27
2018-11-29T09:05:15.692Z,35.60
2018-11-29T09:07:45.707Z,39.83
2018-11-29T09:10:18.822Z,46.77
2018-11-29T09:12:47.824Z,37.80
2018-11-29T09:15:17.332Z,36.17
2018-11-29T09:17:46.496Z,32.70
2018-11-29T09:20:18.695Z,37.60
2018-11-29T09:22:47.747Z,35.67
2018-11-29T09:25:17.914Z,34.13
2018-11-29T09:27:46.971Z,37.60
2018-11-29T09:30:23.378Z,38.67
2018-11-29T09:32:53.467Z,36.00
2018-11-29T09:35:22.514Z,37.17
2018-11-29T09:37:51.582Z,37.70
2018-11-29T09:40:21.772Z,40.73
2018-11-29T09:42:53.308Z,32.30
2018-11-29T09:45:23.179Z,36.27
2018-11-29T09:47:53.299Z,35.00
2018-11-29T09:50:22.476Z,38.17
2018-11-29T09:52:51.511Z,38.10
2018-11-29T09:55:20.520Z,36.23
2018-11-29T09:57:50.278Z,37.83
2018-11-29T10:00:28.050Z,31.73
2018-11-29T10:03:01.372Z,33.00
2018-11-29T10:05:30.402Z,31.37
2018-11-29T10:07:59.369Z,36.70
2018-11-29T10:10:28.333Z,32.67
2018-11-29T10:12:57.322Z,31.43
2018-11-29T10:15:26.309Z,36.10
2018-11-29T10:17:55.300Z,34.73
2018-11-29T10:20:24.368Z,31.03
2018-11-29T10:22:53.432Z,32.17
2018-11-29T10:25:22.414Z,30.77
2018-11-29T10:27:54.272Z,36.90
2018-11-29T10:30:25.592Z,33.97
2018-11-29T10:33:18.435Z,32.87
2018-11-29T10:35:47.598Z,35.27
2018-11-29T10:38:17.304Z,33.67
2018-11-29T10:40:46.405Z,33.60
2018-11-29T10:43:15.636Z,35.20
2018-11-29T10:45:44.642Z,31.00
2018-11-29T10:48:16.188Z,35.23
2018-11-29T10:50:45.225Z,33.90
2018-11-29T10:53:14.285Z,32.00
2018-11-29T10:55:43.266Z,31.23
2018-11-29T10:58:12.263Z,38.43
2018-11-29T11:00:47.857Z,33.03
2018-11-29T11:03:19.678Z,31.77
2018-11-29T11:05:50.817Z,29.83
2018-11-29T11:08:20.853Z,29.73
2018-11-29T11:10:49.929Z,26.17
2018-11-29T11:13:23.944Z,29.93
2018-11-29T11:15:52.970Z,28.33
2018-11-29T11:18:21.963Z,29.73
2018-11-29T11:20:51.042Z,30.53
2018-11-29T11:23:20.019Z,30.17
2018-11-29T11:25:49.068Z,29.77
2018-11-29T11:28:18.058Z,29.40
2018-11-29T11:30:47.049Z,28.70
2018-11-29T11:33:16.787Z,27.07
2018-11-29T11:35:45.857Z,29.10
2018-11-29T11:38:14.863Z,27.63
2018-11-29T11:40:43.886Z,30.23
2018-11-29T11:43:12.903Z,28.90
2018-11-29T11:45:41.931Z,31.43
2018-11-29T11:48:10.918Z,25.53
2018-11-29T11:50:39.906Z,31.07
2018-11-29T11:53:09.977Z,28.13
2018-11-29T11:55:38.966Z,28.77
2018-11-29T11:58:08.615Z,30.93
2018-11-29T12:00:38.210Z,28.77
2018-11-29T12:03:10.654Z,22.90
2018-11-29T12:05:39.650Z,25.00
2018-11-29T12:08:08.668Z,27.30
2018-11-29T12:10:38.454Z,28.33
2018-11-29T12:13:08.149Z,26.93
2018-11-29T12:15:37.898Z,27.63
2018-11-29T12:18:09.658Z,26.37
2018-11-29T12:20:38.661Z,24.87
2018-11-29T12:23:08.463Z,26.27
2018-11-29T12:25:37.458Z,27.30
2018-11-29T12:28:06.664Z,25.60
2018-11-29T12:30:38.305Z,28.10
2018-11-29T12:33:08.105Z,27.17
2018-11-29T12:35:37.138Z,28.23
2018-11-29T12:38:06.597Z,29.67
2018-11-29T12:40:35.781Z,23.73
2018-11-29T12:43:04.826Z,24.60
2018-11-29T12:45:35.902Z,26.30
2018-11-29T12:48:07.699Z,23.07
2018-11-29T12:50:38.989Z,25.37
2018-11-29T12:53:08.922Z,24.67
2018-11-29T12:55:43.281Z,27.50
2018-11-29T12:58:12.272Z,26.63
2018-11-29T13:00:41.280Z,22.67
2018-11-29T13:03:10.984Z,24.40
2018-11-29T13:05:40.050Z,31.50
2018-11-29T13:08:09.672Z,26.47
2018-11-29T13:10:38.669Z,29.80
2018-11-29T13:13:07.774Z,25.20
2018-11-29T13:15:36.831Z,26.43
2018-11-29T13:18:08.182Z,21.63
2018-11-29T13:20:37.286Z,24.33
2018-11-29T13:23:06.724Z,26.53
2018-11-29T13:25:35.741Z,23.47
2018-11-29T13:28:04.837Z,23.47
2018-11-29T13:30:34.150Z,28.73
2018-11-29T13:33:03.174Z,23.60
2018-11-29T13:35:34.483Z,27.90
2018-11-29T13:38:10.200Z,22.30
2018-11-29T13:40:47.071Z,25.63
2018-11-29T13:43:23.501Z,24.10
2018-11-29T13:46:02.423Z,26.33
2018-11-29T13:48:31.440Z,24.00
2018-11-29T13:51:01.457Z,22.93
2018-11-29T13:53:30.515Z,23.40
2018-11-29T13:55:59.583Z,25.13
2018-11-29T13:58:28.619Z,22.70
2018-11-29T14:00:57.627Z,25.47
2018-11-29T14:03:26.620Z,25.50
2018-11-29T14:05:55.734Z,26.57
2018-11-29T14:08:24.742Z,25.00
2018-11-29T14:10:53.788Z,25.40
2018-11-29T14:13:22.776Z,24.27
2018-11-29T14:15:51.780Z,21.37
2018-11-29T14:18:20.847Z,21.23
2018-11-29T14:20:49.835Z,21.20
2018-11-29T14:23:23.172Z,27.87
2018-11-29T14:25:56.416Z,21.53
2018-11-29T14:28:25.499Z,22.10
2018-11-29T14:30:54.518Z,21.07
2018-11-29T14:33:23.578Z,20.97
2018-11-29T14:35:52.693Z,21.57
2018-11-29T14:38:21.740Z,23.17
2018-11-29T14:40:50.773Z,19.67
2018-11-29T14:43:19.794Z,21.67
2018-11-29T14:45:57.443Z,18.93
2018-11-29T14:48:26.445Z,20.40
2018-11-29T14:50:55.439Z,21.93
2018-11-29T14:53:24.455Z,22.87
2018-11-29T14:55:53.503Z,21.63
2018-11-29T14:58:23.797Z,18.63
2018-11-29T15:00:52.779Z,21.43
2018-11-29T15:03:22.648Z,19.03
2018-11-29T15:05:51.677Z,24.03
2018-11-29T15:08:20.773Z,20.90
2018-11-29T15:10:50.679Z,23.30
2018-11-29T15:13:19.701Z,16.40
2018-11-29T15:15:49.850Z,22.70
2018-11-29T15:18:26.686Z,17.57
2018-11-29T15:20:55.677Z,21.17
2018-11-29T15:23:24.661Z,19.33
2018-11-29T15:25:53.690Z,22.33
2018-11-29T15:28:22.671Z,15.20
2018-11-29T15:30:51.732Z,17.60
2018-11-29T15:33:20.777Z,18.57
2018-11-29T15:35:49.830Z,18.87
2018-11-29T15:38:18.812Z,18.47
2018-11-29T15:40:47.811Z,20.07
2018-11-29T15:43:16.823Z,19.53
2018-11-29T15:45:45.900Z,19.90
2018-11-29T15:48:15.010Z,18.23
2018-11-29T15:50:44.031Z,16.70
2018-11-29T15:53:13.076Z,14.50
2018-11-29T15:55:42.127Z,18.70
2018-11-29T15:58:11.155Z,21.90
2018-11-29T16:00:40.169Z,17.23
2018-11-29T16:03:09.666Z,16.07
2018-11-29T16:05:41.249Z,21.37
2018-11-29T16:08:08.597Z,18.57
2018-11-29T16:10:44.402Z,20.60
2018-11-29T16:13:28.200Z,17.47
2018-11-29T16:15:57.194Z,18.33
2018-11-29T16:18:26.219Z,19.27
2018-11-29T16:20:55.225Z,19.10
2018-11-29T16:23:24.337Z,18.30
2018-11-29T16:25:53.739Z,17.20
2018-11-29T16:28:24.124Z,19.07
2018-11-29T16:30:55.112Z,21.63
2018-11-29T16:33:25.684Z,19.87
2018-11-29T16:35:54.717Z,18.17
2018-11-29T16:38:23.828Z,23.27
2018-11-29T16:40:53.325Z,16.77
2018-11-29T16:43:22.333Z,17.70
2018-11-29T16:45:51.330Z,16.30
2018-11-29T16:48:20.384Z,17.83
2018-11-29T16:50:49.432Z,16.77
2018-11-29T16:53:18.450Z,18.03
2018-11-29T16:55:47.480Z,16.40
2018-11-29T16:58:18.271Z,14.10
2018-11-29T17:00:47.301Z,15.63
2018-11-29T17:03:16.316Z,16.80
2018-11-29T17:05:45.387Z,16.57
2018-11-29T17:08:14.585Z,18.57
2018-11-29T17:10:43.581Z,16.70
2018-11-29T17:13:15.335Z,16.80
2018-11-29T17:15:44.350Z,17.17
2018-11-29T17:18:13.363Z,14.17
2018-11-29T17:20:42.394Z,18.30
2018-11-29T17:26:29.288Z,16.33
2018-11-29T17:28:58.281Z,17.10
2018-11-29T17:31:27.324Z,14.60
2018-11-29T17:34:25.948Z,18.50
2018-11-29T17:36:57.046Z,14.53
2018-11-29T17:39:33.872Z,15.23
2018-11-29T17:42:03.045Z,14.40
2018-11-29T17:44:32.074Z,15.53
2018-11-29T17:47:01.221Z,14.47
2018-11-29T17:49:30.323Z,13.87
2018-11-29T17:51:59.526Z,14.60
2018-11-29T17:54:28.758Z,14.10
2018-11-29T17:56:58.528Z,13.27
2018-11-29T17:59:27.953Z,15.37
2018-11-29T18:01:57.107Z,13.13
2018-11-29T18:04:26.488Z,15.17
2018-11-29T18:06:56.670Z,12.20
2018-11-29T18:09:25.865Z,15.43
2018-11-29T18:11:55.095Z,16.43
2018-11-29T18:14:24.287Z,15.00
2018-11-29T18:16:54.396Z,13.70
2018-11-29T18:19:23.673Z,13.57
2018-11-29T18:21:52.969Z,17.77
2018-11-29T18:24:22.087Z,18.10
2018-11-29T18:26:51.341Z,14.53
2018-11-29T18:29:20.683Z,13.13
2018-11-29T18:31:49.744Z,13.07
2018-11-29T18:34:18.781Z,15.80
2018-11-29T18:36:47.975Z,13.30
2018-11-29T18:39:17.023Z,11.87
2018-11-29T18:41:47.230Z,13.73
2018-11-29T18:44:16.318Z,15.10
2018-11-29T18:46:45.468Z,15.13
2018-11-29T18:49:14.621Z,11.43
2018-11-29T18:51:43.739Z,13.07
2018-11-29T18:54:12.932Z,11.23
2018-11-29T18:56:42.093Z,15.77
2018-11-29T18:59:11.986Z,12.00
2018-11-29T19:01:41.130Z,12.83
2018-11-29T19:04:10.185Z,12.83
2018-11-29T19:06:39.257Z,17.90
2018-11-29T19:09:08.685Z,13.27
2018-11-29T19:11:38.192Z,16.07
2018-11-29T19:14:07.276Z,12.20
2018-11-29T19:16:36.388Z,13.73
2018-11-29T19:19:05.625Z,14.87
2018-11-29T19:21:34.856Z,12.67
2018-11-29T19:24:04.007Z,13.60
2018-11-29T19:26:33.183Z,16.77
2018-11-29T19:29:02.273Z,15.43
2018-11-29T19:31:31.376Z,15.03
2018-11-29T19:34:01.548Z,13.27
2018-11-29T19:36:29.879Z,12.63
2018-11-29T19:38:59.071Z,12.57
2018-11-29T19:41:28.254Z,15.47
2018-11-29T19:43:57.528Z,12.97
2018-11-29T19:46:26.642Z,12.80
2018-11-29T19:48:55.725Z,14.67
2018-11-29T19:51:24.826Z,14.50
2018-11-29T19:53:53.986Z,11.63
2018-11-29T19:56:23.761Z,11.33
2018-11-29T19:58:53.033Z,17.10
2018-11-29T20:01:28.927Z,13.47
2018-11-29T20:03:58.043Z,14.67
2018-11-29T20:06:27.179Z,13.50
2018-11-29T20:08:56.291Z,19.17
2018-11-29T20:11:25.448Z,13.47
2018-11-29T20:13:54.668Z,13.57
2018-11-29T20:16:23.818Z,12.67
2018-11-29T20:18:53.163Z,12.60
2018-11-29T20:21:22.436Z,12.27
2018-11-29T20:23:51.644Z,11.43
2018-11-29T20:26:20.861Z,12.63
2018-11-29T20:28:51.177Z,15.07
2018-11-29T20:31:20.698Z,11.70
2018-11-29T20:33:49.823Z,13.63
2018-11-29T20:36:18.954Z,13.33
2018-11-29T20:38:48.035Z,12.47
2018-11-29T20:41:17.186Z,13.40
2018-11-29T20:43:46.421Z,12.37
2018-11-29T20:46:15.616Z,12.03
2018-11-29T20:48:45.636Z,12.80
2018-11-29T20:51:14.747Z,10.63
2018-11-29T20:53:43.885Z,11.53
2018-11-29T20:56:14.246Z,13.67
2018-11-29T20:58:43.388Z,16.30
2018-11-29T21:01:12.496Z,10.03
2018-11-29T21:03:41.655Z,11.27
2018-11-29T21:06:12.665Z,12.07
2018-11-29T21:08:41.942Z,11.97
2018-11-29T21:11:12.715Z,15.17
2018-11-29T21:13:42.229Z,12.53
2018-11-29T21:16:11.213Z,12.53
2018-11-29T21:18:40.343Z,10.93
2018-11-29T21:21:09.372Z,10.30
2018-11-29T21:23:38.498Z,12.13
2018-11-29T21:26:07.690Z,10.40
2018-11-29T21:28:36.762Z,11.90
2018-11-29T21:31:06.148Z,13.47
2018-11-29T21:33:35.270Z,11.40
2018-11-29T21:36:04.474Z,10.83
2018-11-29T21:38:33.520Z,10.07
2018-11-29T21:41:04.205Z,12.40
2018-11-29T21:43:33.362Z,13.83
2018-11-29T21:46:02.637Z,14.17
2018-11-29T21:48:31.647Z,11.93
2018-11-29T21:51:00.719Z,11.30
2018-11-29T21:53:29.746Z,12.53
2018-11-29T21:55:58.874Z,13.90
2018-11-29T21:58:27.932Z,13.93
2018-11-29T22:00:56.958Z,11.43
2018-11-29T22:03:26.038Z,12.57
2018-11-29T22:05:55.072Z,16.10
2018-11-29T22:08:24.085Z,10.60
2018-11-29T22:10:53.214Z,12.53
2018-11-29T22:13:23.246Z,13.33
2018-11-29T22:15:52.322Z,11.50
2018-11-29T22:18:22.288Z,11.40
2018-11-29T22:20:57.013Z,12.00
2018-11-29T22:23:26.075Z,11.47
2018-11-29T22:25:57.135Z,10.77
2018-11-29T22:28:26.186Z,14.40
2018-11-29T22:30:55.820Z,10.90
2018-11-29T22:33:24.904Z,11.00
2018-11-29T22:35:54.029Z,13.33
2018-11-29T22:38:23.120Z,9.87
2018-11-29T22:40:52.207Z,11.63
2018-11-29T22:43:21.183Z,12.03
2018-11-29T22:45:50.224Z,9.97
2018-11-29T22:48:19.212Z,8.90
2018-11-29T22:50:48.366Z,9.93
2018-11-29T22:53:17.338Z,8.87
2018-11-29T22:55:46.323Z,10.07
2018-11-29T22:58:15.336Z,11.17
2018-11-29T23:00:49.754Z,9.90
2018-11-29T23:03:18.748Z,11.17
2018-11-29T23:05:47.754Z,11.93
2018-11-29T23:08:16.755Z,11.43
2018-11-29T23:10:45.755Z,10.57
2018-11-29T23:13:14.749Z,8.87
2018-11-29T23:15:43.762Z,10.97
2018-11-29T23:18:12.754Z,9.40
2018-11-29T23:20:42.719Z,8.00
2018-11-29T23:23:11.683Z,9.40
2018-11-29T23:25:40.689Z,15.43
2018-11-29T23:28:09.659Z,9.77
2018-11-29T23:30:38.704Z,9.60
2018-11-29T23:33:07.687Z,10.00
2018-11-29T23:35:36.710Z,9.57
2018-11-29T23:38:06.794Z,9.77
2018-11-29T23:40:35.772Z,9.57
2018-11-29T23:43:04.955Z,12.33
2018-11-29T23:45:33.963Z,11.83
2018-11-29T23:48:02.938Z,10.67
2018-11-29T23:50:31.944Z,12.00
2018-11-29T23:53:00.941Z,9.13
2018-11-29T23:55:30.086Z,11.57
2018-11-29T23:57:59.071Z,9.90
